sensor_id;sensor_type;location;lat;lon;timestamp;P1;durP1;ratioP1;P2;durP2;ratioP2
8636;SDS011;4356;49.068;8.658;2022-08-21T00:01:11;2.40;;;2.30;;
8636;SDS011;4356;49.068;8.658;2022-08-21T00:03:40;3.70;;;2.00;;
8636;SDS011;4356;49.068;8.658;2022-08-21T00:06:06;1.87;;;1.77;;
8636;SDS011;4356;49.068;8.658;2022-08-21T00:08:32;3.53;;;2.10;;
8636;SDS011;4356;49.068;8.658;2022-08-21T00:10:58;2.20;;;2.00;;
8636;SDS011;4356;49.068;8.658;2022-08-21T00:13:24;3.57;;;2.00;;
8636;SDS011;4356;49.068;8.658;2022-08-21T00:15:49;3.60;;;1.90;;
8636;SDS011;4356;49.068;8.658;2022-08-21T00:18:16;3.03;;;1.90;;
8636;SDS011;4356;49.068;8.658;2022-08-21T00:20:43;2.00;;;1.90;;
8636;SDS011;4356;49.068;8.658;2022-08-21T00:23:09;2.30;;;2.20;;
8636;SDS011;4356;49.068;8.658;2022-08-21T00:25:35;3.17;;;1.70;;
8636;SDS011;4356;49.068;8.658;2022-08-21T00:28:02;4.80;;;2.23;;
8636;SDS011;4356;49.068;8.658;2022-08-21T00:30:28;2.97;;;1.90;;
8636;SDS011;4356;49.068;8.658;2022-08-21T00:32:55;2.27;;;2.07;;
8636;SDS011;4356;49.068;8.658;2022-08-21T00:35:23;2.37;;;2.27;;
8636;SDS011;4356;49.068;8.658;2022-08-21T00:37:51;2.17;;;2.00;;
8636;SDS011;4356;49.068;8.658;2022-08-21T00:40:19;5.20;;;2.00;;
8636;SDS011;4356;49.068;8.658;2022-08-21T00:42:47;2.80;;;2.47;;
8636;SDS011;4356;49.068;8.658;2022-08-21T00:45:12;2.57;;;2.33;;
8636;SDS011;4356;49.068;8.658;2022-08-21T00:47:38;2.13;;;2.03;;
8636;SDS011;4356;49.068;8.658;2022-08-21T00:50:05;2.50;;;2.10;;
8636;SDS011;4356;49.068;8.658;2022-08-21T00:52:33;2.83;;;2.43;;
8636;SDS011;4356;49.068;8.658;2022-08-21T00:55:00;2.70;;;2.20;;
8636;SDS011;4356;49.068;8.658;2022-08-21T00:57:31;2.27;;;2.07;;
8636;SDS011;4356;49.068;8.658;2022-08-21T01:00:00;2.70;;;2.50;;
8636;SDS011;4356;49.068;8.658;2022-08-21T01:02:28;2.10;;;2.00;;
8636;SDS011;4356;49.068;8.658;2022-08-21T01:04:53;2.40;;;2.20;;
8636;SDS011;4356;49.068;8.658;2022-08-21T01:07:19;3.17;;;2.10;;
8636;SDS011;4356;49.068;8.658;2022-08-21T01:09:45;1.87;;;1.77;;
8636;SDS011;4356;49.068;8.658;2022-08-21T01:12:12;1.90;;;1.80;;
8636;SDS011;4356;49.068;8.658;2022-08-21T01:14:39;1.87;;;1.77;;
8636;SDS011;4356;49.068;8.658;2022-08-21T01:17:08;2.10;;;2.00;;
8636;SDS011;4356;49.068;8.658;2022-08-21T01:19:35;2.33;;;2.13;;
8636;SDS011;4356;49.068;8.658;2022-08-21T01:22:00;1.60;;;1.50;;
8636;SDS011;4356;49.068;8.658;2022-08-21T01:24:26;2.00;;;1.83;;
8636;SDS011;4356;49.068;8.658;2022-08-21T01:26:52;3.33;;;2.30;;
8636;SDS011;4356;49.068;8.658;2022-08-21T01:32:02;2.50;;;2.30;;
8636;SDS011;4356;49.068;8.658;2022-08-21T01:34:30;2.30;;;2.10;;
8636;SDS011;4356;49.068;8.658;2022-08-21T01:36:57;2.07;;;1.97;;
8636;SDS011;4356;49.068;8.658;2022-08-21T01:39:22;2.03;;;1.83;;
8636;SDS011;4356;49.068;8.658;2022-08-21T01:41:48;2.53;;;2.10;;
8636;SDS011;4356;49.068;8.658;2022-08-21T01:44:13;2.00;;;1.90;;
8636;SDS011;4356;49.068;8.658;2022-08-21T01:46:39;2.90;;;2.20;;
8636;SDS011;4356;49.068;8.658;2022-08-21T01:49:04;2.03;;;1.87;;
8636;SDS011;4356;49.068;8.658;2022-08-21T01:51:30;1.80;;;1.70;;
8636;SDS011;4356;49.068;8.658;2022-08-21T01:53:56;2.20;;;2.00;;
8636;SDS011;4356;49.068;8.658;2022-08-21T01:56:22;2.80;;;2.03;;
8636;SDS011;4356;49.068;8.658;2022-08-21T01:58:49;1.87;;;1.77;;
8636;SDS011;4356;49.068;8.658;2022-08-21T02:01:15;2.63;;;2.23;;
8636;SDS011;4356;49.068;8.658;2022-08-21T02:03:41;1.90;;;1.80;;
8636;SDS011;4356;49.068;8.658;2022-08-21T02:06:07;1.80;;;1.70;;
8636;SDS011;4356;49.068;8.658;2022-08-21T02:08:36;2.67;;;1.93;;
8636;SDS011;4356;49.068;8.658;2022-08-21T02:11:02;3.73;;;2.13;;
8636;SDS011;4356;49.068;8.658;2022-08-21T02:13:27;2.03;;;1.93;;
8636;SDS011;4356;49.068;8.658;2022-08-21T02:15:53;2.07;;;1.90;;
8636;SDS011;4356;49.068;8.658;2022-08-21T02:18:18;2.37;;;2.10;;
8636;SDS011;4356;49.068;8.658;2022-08-21T02:20:45;2.60;;;1.60;;
8636;SDS011;4356;49.068;8.658;2022-08-21T02:23:13;2.63;;;1.93;;
8636;SDS011;4356;49.068;8.658;2022-08-21T02:25:39;1.77;;;1.67;;
8636;SDS011;4356;49.068;8.658;2022-08-21T02:28:06;1.93;;;1.83;;
8636;SDS011;4356;49.068;8.658;2022-08-21T02:30:43;2.23;;;1.77;;
8636;SDS011;4356;49.068;8.658;2022-08-21T02:33:11;2.13;;;1.90;;
8636;SDS011;4356;49.068;8.658;2022-08-21T02:35:39;1.77;;;1.70;;
8636;SDS011;4356;49.068;8.658;2022-08-21T02:38:07;1.93;;;1.83;;
8636;SDS011;4356;49.068;8.658;2022-08-21T02:40:36;4.10;;;1.93;;
8636;SDS011;4356;49.068;8.658;2022-08-21T02:43:03;2.13;;;1.93;;
8636;SDS011;4356;49.068;8.658;2022-08-21T02:45:29;3.27;;;1.93;;
8636;SDS011;4356;49.068;8.658;2022-08-21T02:47:57;3.27;;;2.00;;
8636;SDS011;4356;49.068;8.658;2022-08-21T02:50:28;2.83;;;2.10;;
8636;SDS011;4356;49.068;8.658;2022-08-21T02:52:57;2.03;;;1.83;;
8636;SDS011;4356;49.068;8.658;2022-08-21T02:55:24;2.07;;;1.90;;
8636;SDS011;4356;49.068;8.658;2022-08-21T02:57:52;2.60;;;2.40;;
8636;SDS011;4356;49.068;8.658;2022-08-21T03:00:19;1.90;;;1.80;;
8636;SDS011;4356;49.068;8.658;2022-08-21T03:02:45;2.10;;;2.00;;
8636;SDS011;4356;49.068;8.658;2022-08-21T03:05:12;2.00;;;1.90;;
8636;SDS011;4356;49.068;8.658;2022-08-21T03:07:39;1.93;;;1.83;;
8636;SDS011;4356;49.068;8.658;2022-08-21T03:10:06;2.47;;;1.80;;
8636;SDS011;4356;49.068;8.658;2022-08-21T03:12:32;2.10;;;1.90;;
8636;SDS011;4356;49.068;8.658;2022-08-21T03:14:57;2.40;;;2.00;;
8636;SDS011;4356;49.068;8.658;2022-08-21T03:17:23;2.00;;;1.90;;
8636;SDS011;4356;49.068;8.658;2022-08-21T03:19:49;1.87;;;1.77;;
8636;SDS011;4356;49.068;8.658;2022-08-21T03:22:24;1.80;;;1.70;;
8636;SDS011;4356;49.068;8.658;2022-08-21T03:24:50;2.83;;;1.97;;
8636;SDS011;4356;49.068;8.658;2022-08-21T03:27:16;3.57;;;2.00;;
8636;SDS011;4356;49.068;8.658;2022-08-21T03:33:10;2.30;;;2.10;;
8636;SDS011;4356;49.068;8.658;2022-08-21T03:35:36;2.33;;;1.87;;
8636;SDS011;4356;49.068;8.658;2022-08-21T03:38:02;2.30;;;2.10;;
8636;SDS011;4356;49.068;8.658;2022-08-21T03:40:28;1.87;;;1.77;;
8636;SDS011;4356;49.068;8.658;2022-08-21T03:42:54;2.63;;;2.03;;
8636;SDS011;4356;49.068;8.658;2022-08-21T03:45:19;3.27;;;1.97;;
8636;SDS011;4356;49.068;8.658;2022-08-21T03:50:18;2.13;;;2.00;;
8636;SDS011;4356;49.068;8.658;2022-08-21T03:52:44;2.90;;;2.30;;
8636;SDS011;4356;49.068;8.658;2022-08-21T03:55:10;1.93;;;1.83;;
8636;SDS011;4356;49.068;8.658;2022-08-21T03:57:35;1.97;;;1.70;;
8636;SDS011;4356;49.068;8.658;2022-08-21T04:00:01;4.00;;;1.93;;
8636;SDS011;4356;49.068;8.658;2022-08-21T04:02:26;1.93;;;1.83;;
8636;SDS011;4356;49.068;8.658;2022-08-21T04:04:52;3.27;;;1.77;;
8636;SDS011;4356;49.068;8.658;2022-08-21T04:07:17;3.10;;;2.10;;
8636;SDS011;4356;49.068;8.658;2022-08-21T04:09:43;2.20;;;2.10;;
8636;SDS011;4356;49.068;8.658;2022-08-21T04:12:08;2.37;;;2.20;;
8636;SDS011;4356;49.068;8.658;2022-08-21T04:14:34;2.07;;;1.97;;
8636;SDS011;4356;49.068;8.658;2022-08-21T04:16:59;2.03;;;1.77;;
8636;SDS011;4356;49.068;8.658;2022-08-21T04:19:25;4.83;;;2.03;;
8636;SDS011;4356;49.068;8.658;2022-08-21T04:21:50;2.20;;;2.00;;
8636;SDS011;4356;49.068;8.658;2022-08-21T04:24:16;1.60;;;1.50;;
8636;SDS011;4356;49.068;8.658;2022-08-21T04:26:41;6.37;;;2.10;;
8636;SDS011;4356;49.068;8.658;2022-08-21T04:29:07;3.80;;;1.90;;
8636;SDS011;4356;49.068;8.658;2022-08-21T04:31:33;2.33;;;1.90;;
8636;SDS011;4356;49.068;8.658;2022-08-21T04:33:59;2.47;;;1.90;;
8636;SDS011;4356;49.068;8.658;2022-08-21T04:36:25;2.00;;;1.90;;
8636;SDS011;4356;49.068;8.658;2022-08-21T04:38:50;2.53;;;2.33;;
8636;SDS011;4356;49.068;8.658;2022-08-21T04:41:16;2.30;;;2.10;;
8636;SDS011;4356;49.068;8.658;2022-08-21T04:43:42;2.40;;;2.20;;
8636;SDS011;4356;49.068;8.658;2022-08-21T04:46:08;1.40;;;1.40;;
8636;SDS011;4356;49.068;8.658;2022-08-21T04:48:33;1.83;;;1.73;;
8636;SDS011;4356;49.068;8.658;2022-08-21T04:51:06;1.90;;;1.80;;
8636;SDS011;4356;49.068;8.658;2022-08-21T04:56:03;2.93;;;2.20;;
8636;SDS011;4356;49.068;8.658;2022-08-21T04:58:33;2.30;;;2.10;;
8636;SDS011;4356;49.068;8.658;2022-08-21T05:01:01;3.13;;;2.10;;
8636;SDS011;4356;49.068;8.658;2022-08-21T05:03:29;2.47;;;2.07;;
8636;SDS011;4356;49.068;8.658;2022-08-21T05:05:56;2.37;;;2.13;;
8636;SDS011;4356;49.068;8.658;2022-08-21T05:08:23;2.60;;;2.23;;
8636;SDS011;4356;49.068;8.658;2022-08-21T05:10:51;2.37;;;1.77;;
8636;SDS011;4356;49.068;8.658;2022-08-21T05:13:17;1.90;;;1.80;;
8636;SDS011;4356;49.068;8.658;2022-08-21T05:15:43;2.60;;;2.40;;
8636;SDS011;4356;49.068;8.658;2022-08-21T05:18:08;2.90;;;2.07;;
8636;SDS011;4356;49.068;8.658;2022-08-21T05:20:34;2.40;;;2.20;;
8636;SDS011;4356;49.068;8.658;2022-08-21T05:23:01;2.20;;;2.10;;
8636;SDS011;4356;49.068;8.658;2022-08-21T05:25:27;2.23;;;2.07;;
8636;SDS011;4356;49.068;8.658;2022-08-21T05:27:53;2.20;;;2.10;;
8636;SDS011;4356;49.068;8.658;2022-08-21T05:30:19;2.40;;;2.20;;
8636;SDS011;4356;49.068;8.658;2022-08-21T05:32:45;2.83;;;2.00;;
8636;SDS011;4356;49.068;8.658;2022-08-21T05:35:12;2.13;;;2.03;;
8636;SDS011;4356;49.068;8.658;2022-08-21T05:37:38;2.07;;;1.97;;
8636;SDS011;4356;49.068;8.658;2022-08-21T05:40:04;1.67;;;1.63;;
8636;SDS011;4356;49.068;8.658;2022-08-21T05:42:33;3.77;;;2.40;;
8636;SDS011;4356;49.068;8.658;2022-08-21T05:44:59;3.83;;;2.20;;
8636;SDS011;4356;49.068;8.658;2022-08-21T05:47:24;2.50;;;2.37;;
8636;SDS011;4356;49.068;8.658;2022-08-21T05:49:50;2.40;;;2.20;;
8636;SDS011;4356;49.068;8.658;2022-08-21T05:52:21;2.67;;;2.30;;
8636;SDS011;4356;49.068;8.658;2022-08-21T05:54:47;2.43;;;2.23;;
8636;SDS011;4356;49.068;8.658;2022-08-21T05:57:14;3.23;;;2.03;;
8636;SDS011;4356;49.068;8.658;2022-08-21T05:59:40;2.33;;;2.23;;
8636;SDS011;4356;49.068;8.658;2022-08-21T06:02:05;2.30;;;2.20;;
8636;SDS011;4356;49.068;8.658;2022-08-21T06:04:36;2.83;;;2.20;;
8636;SDS011;4356;49.068;8.658;2022-08-21T06:07:05;2.40;;;2.20;;
8636;SDS011;4356;49.068;8.658;2022-08-21T06:09:31;2.60;;;2.40;;
8636;SDS011;4356;49.068;8.658;2022-08-21T06:11:57;2.37;;;2.17;;
8636;SDS011;4356;49.068;8.658;2022-08-21T06:14:23;4.10;;;2.47;;
8636;SDS011;4356;49.068;8.658;2022-08-21T06:16:48;2.50;;;2.30;;
8636;SDS011;4356;49.068;8.658;2022-08-21T06:19:14;2.63;;;2.43;;
8636;SDS011;4356;49.068;8.658;2022-08-21T06:21:40;2.87;;;2.60;;
8636;SDS011;4356;49.068;8.658;2022-08-21T06:24:05;2.83;;;2.20;;
8636;SDS011;4356;49.068;8.658;2022-08-21T06:26:31;4.10;;;2.40;;
8636;SDS011;4356;49.068;8.658;2022-08-21T06:28:57;2.10;;;2.00;;
8636;SDS011;4356;49.068;8.658;2022-08-21T06:31:23;2.40;;;2.20;;
8636;SDS011;4356;49.068;8.658;2022-08-21T06:33:51;2.20;;;2.00;;
8636;SDS011;4356;49.068;8.658;2022-08-21T06:36:17;2.20;;;2.03;;
8636;SDS011;4356;49.068;8.658;2022-08-21T06:38:43;3.07;;;2.57;;
8636;SDS011;4356;49.068;8.658;2022-08-21T06:41:10;2.70;;;2.50;;
8636;SDS011;4356;49.068;8.658;2022-08-21T06:43:35;2.53;;;2.33;;
8636;SDS011;4356;49.068;8.658;2022-08-21T06:46:03;2.63;;;2.00;;
8636;SDS011;4356;49.068;8.658;2022-08-21T06:48:28;2.60;;;2.43;;
8636;SDS011;4356;49.068;8.658;2022-08-21T06:50:57;2.40;;;2.20;;
8636;SDS011;4356;49.068;8.658;2022-08-21T06:53:23;2.63;;;2.33;;
8636;SDS011;4356;49.068;8.658;2022-08-21T06:55:48;4.10;;;2.20;;
8636;SDS011;4356;49.068;8.658;2022-08-21T06:58:15;2.53;;;2.33;;
8636;SDS011;4356;49.068;8.658;2022-08-21T07:00:42;3.23;;;2.10;;
8636;SDS011;4356;49.068;8.658;2022-08-21T07:03:17;3.20;;;2.70;;
8636;SDS011;4356;49.068;8.658;2022-08-21T07:05:50;3.37;;;2.30;;
8636;SDS011;4356;49.068;8.658;2022-08-21T07:08:16;3.13;;;2.40;;
8636;SDS011;4356;49.068;8.658;2022-08-21T07:10:41;3.10;;;2.60;;
8636;SDS011;4356;49.068;8.658;2022-08-21T07:13:07;2.70;;;2.50;;
8636;SDS011;4356;49.068;8.658;2022-08-21T07:15:32;2.73;;;2.53;;
8636;SDS011;4356;49.068;8.658;2022-08-21T07:17:58;5.77;;;2.90;;
8636;SDS011;4356;49.068;8.658;2022-08-21T07:20:25;3.40;;;2.40;;
8636;SDS011;4356;49.068;8.658;2022-08-21T07:22:51;7.03;;;2.93;;
8636;SDS011;4356;49.068;8.658;2022-08-21T07:25:17;3.87;;;2.47;;
8636;SDS011;4356;49.068;8.658;2022-08-21T07:27:42;3.07;;;2.77;;
8636;SDS011;4356;49.068;8.658;2022-08-21T07:30:08;2.70;;;2.50;;
8636;SDS011;4356;49.068;8.658;2022-08-21T07:32:35;4.90;;;2.50;;
8636;SDS011;4356;49.068;8.658;2022-08-21T07:35:01;3.60;;;3.30;;
8636;SDS011;4356;49.068;8.658;2022-08-21T07:37:26;3.67;;;2.43;;
8636;SDS011;4356;49.068;8.658;2022-08-21T07:39:52;3.97;;;2.80;;
8636;SDS011;4356;49.068;8.658;2022-08-21T07:42:17;4.27;;;2.80;;
8636;SDS011;4356;49.068;8.658;2022-08-21T07:44:43;2.47;;;2.27;;
8636;SDS011;4356;49.068;8.658;2022-08-21T07:47:08;2.83;;;2.60;;
8636;SDS011;4356;49.068;8.658;2022-08-21T07:49:34;3.27;;;2.50;;
8636;SDS011;4356;49.068;8.658;2022-08-21T07:52:00;3.37;;;2.70;;
8636;SDS011;4356;49.068;8.658;2022-08-21T07:54:44;5.07;;;2.87;;
8636;SDS011;4356;49.068;8.658;2022-08-21T07:57:09;2.77;;;2.53;;
8636;SDS011;4356;49.068;8.658;2022-08-21T07:59:35;4.70;;;2.67;;
8636;SDS011;4356;49.068;8.658;2022-08-21T08:02:01;3.20;;;2.70;;
8636;SDS011;4356;49.068;8.658;2022-08-21T08:04:26;7.27;;;3.13;;
8636;SDS011;4356;49.068;8.658;2022-08-21T08:06:52;3.83;;;2.43;;
8636;SDS011;4356;49.068;8.658;2022-08-21T08:09:17;2.80;;;2.60;;
8636;SDS011;4356;49.068;8.658;2022-08-21T08:11:43;4.03;;;2.80;;
8636;SDS011;4356;49.068;8.658;2022-08-21T08:14:09;6.93;;;2.77;;
8636;SDS011;4356;49.068;8.658;2022-08-21T08:16:35;6.53;;;2.83;;
8636;SDS011;4356;49.068;8.658;2022-08-21T08:19:00;4.17;;;2.63;;
8636;SDS011;4356;49.068;8.658;2022-08-21T08:21:26;3.37;;;2.67;;
8636;SDS011;4356;49.068;8.658;2022-08-21T08:23:52;3.87;;;2.90;;
8636;SDS011;4356;49.068;8.658;2022-08-21T08:26:18;4.13;;;2.67;;
8636;SDS011;4356;49.068;8.658;2022-08-21T08:28:44;3.20;;;2.90;;
8636;SDS011;4356;49.068;8.658;2022-08-21T08:31:11;3.63;;;2.90;;
8636;SDS011;4356;49.068;8.658;2022-08-21T08:33:37;4.53;;;2.83;;
8636;SDS011;4356;49.068;8.658;2022-08-21T08:39:30;3.10;;;2.80;;
8636;SDS011;4356;49.068;8.658;2022-08-21T08:41:58;3.10;;;2.80;;
8636;SDS011;4356;49.068;8.658;2022-08-21T08:44:30;7.60;;;3.17;;
8636;SDS011;4356;49.068;8.658;2022-08-21T08:46:55;2.93;;;2.60;;
8636;SDS011;4356;49.068;8.658;2022-08-21T08:51:55;4.00;;;3.10;;
8636;SDS011;4356;49.068;8.658;2022-08-21T08:54:31;3.87;;;3.13;;
8636;SDS011;4356;49.068;8.658;2022-08-21T08:57:00;3.50;;;3.20;;
8636;SDS011;4356;49.068;8.658;2022-08-21T08:59:31;3.57;;;3.27;;
8636;SDS011;4356;49.068;8.658;2022-08-21T09:02:20;3.72;;;2.78;;
8636;SDS011;4356;49.068;8.658;2022-08-21T09:04:48;6.47;;;3.20;;
8636;SDS011;4356;49.068;8.658;2022-08-21T09:10:13;3.42;;;2.80;;
8636;SDS011;4356;49.068;8.658;2022-08-21T09:12:55;4.50;;;3.30;;
8636;SDS011;4356;49.068;8.658;2022-08-21T09:16:03;3.47;;;3.15;;
8636;SDS011;4356;49.068;8.658;2022-08-21T09:21:38;3.13;;;2.83;;
8636;SDS011;4356;49.068;8.658;2022-08-21T09:27:08;5.07;;;2.92;;
8636;SDS011;4356;49.068;8.658;2022-08-21T09:29:43;5.50;;;2.95;;
8636;SDS011;4356;49.068;8.658;2022-08-21T09:32:18;5.10;;;2.75;;
8636;SDS011;4356;49.068;8.658;2022-08-21T09:37:22;4.38;;;3.45;;
8636;SDS011;4356;49.068;8.658;2022-08-21T09:39:47;3.42;;;3.13;;
8636;SDS011;4356;49.068;8.658;2022-08-21T09:42:20;3.40;;;3.10;;
8636;SDS011;4356;49.068;8.658;2022-08-21T09:44:48;2.92;;;2.72;;
8636;SDS011;4356;49.068;8.658;2022-08-21T09:47:13;3.83;;;3.00;;
8636;SDS011;4356;49.068;8.658;2022-08-21T09:49:43;4.05;;;3.10;;
8636;SDS011;4356;49.068;8.658;2022-08-21T09:52:27;2.92;;;2.65;;
8636;SDS011;4356;49.068;8.658;2022-08-21T09:54:54;7.70;;;3.15;;
8636;SDS011;4356;49.068;8.658;2022-08-21T09:57:27;5.85;;;3.35;;
8636;SDS011;4356;49.068;8.658;2022-08-21T10:00:24;4.80;;;2.97;;
8636;SDS011;4356;49.068;8.658;2022-08-21T10:02:54;6.05;;;3.28;;
8636;SDS011;4356;49.068;8.658;2022-08-21T10:05:33;5.95;;;3.28;;
8636;SDS011;4356;49.068;8.658;2022-08-21T10:07:59;4.13;;;2.50;;
8636;SDS011;4356;49.068;8.658;2022-08-21T10:10:28;6.10;;;3.00;;
8636;SDS011;4356;49.068;8.658;2022-08-21T10:21:02;4.18;;;3.30;;
8636;SDS011;4356;49.068;8.658;2022-08-21T10:34:29;3.67;;;2.88;;
8636;SDS011;4356;49.068;8.658;2022-08-21T10:48:03;4.82;;;3.30;;
8636;SDS011;4356;49.068;8.658;2022-08-21T10:50:48;4.18;;;3.05;;
8636;SDS011;4356;49.068;8.658;2022-08-21T10:56:23;3.90;;;2.80;;
8636;SDS011;4356;49.068;8.658;2022-08-21T11:10:21;4.07;;;3.05;;
8636;SDS011;4356;49.068;8.658;2022-08-21T11:16:00;3.45;;;3.08;;
8636;SDS011;4356;49.068;8.658;2022-08-21T11:18:32;3.50;;;2.75;;
8636;SDS011;4356;49.068;8.658;2022-08-21T11:21:09;5.07;;;3.30;;
8636;SDS011;4356;49.068;8.658;2022-08-21T11:23:45;3.83;;;2.80;;
8636;SDS011;4356;49.068;8.658;2022-08-21T11:26:18;2.70;;;2.50;;
8636;SDS011;4356;49.068;8.658;2022-08-21T11:29:09;7.43;;;3.40;;
8636;SDS011;4356;49.068;8.658;2022-08-21T11:37:49;5.22;;;2.80;;
8636;SDS011;4356;49.068;8.658;2022-08-21T11:40:44;3.88;;;2.75;;
8636;SDS011;4356;49.068;8.658;2022-08-21T11:56:40;3.15;;;2.85;;
8636;SDS011;4356;49.068;8.658;2022-08-21T11:59:11;4.25;;;2.88;;
8636;SDS011;4356;49.068;8.658;2022-08-21T12:01:46;4.38;;;2.75;;
8636;SDS011;4356;49.068;8.658;2022-08-21T12:04:22;3.17;;;2.83;;
8636;SDS011;4356;49.068;8.658;2022-08-21T12:06:48;3.97;;;2.65;;
8636;SDS011;4356;49.068;8.658;2022-08-21T12:12:35;3.33;;;3.00;;
8636;SDS011;4356;49.068;8.658;2022-08-21T12:15:05;4.57;;;2.97;;
8636;SDS011;4356;49.068;8.658;2022-08-21T12:17:38;2.95;;;2.40;;
8636;SDS011;4356;49.068;8.658;2022-08-21T12:22:52;4.22;;;2.63;;
8636;SDS011;4356;49.068;8.658;2022-08-21T12:25:19;2.95;;;2.50;;
8636;SDS011;4356;49.068;8.658;2022-08-21T12:27:48;3.63;;;2.83;;
8636;SDS011;4356;49.068;8.658;2022-08-21T12:32:58;3.72;;;2.72;;
8636;SDS011;4356;49.068;8.658;2022-08-21T12:35:31;4.60;;;2.63;;
8636;SDS011;4356;49.068;8.658;2022-08-21T12:38:06;4.32;;;2.40;;
8636;SDS011;4356;49.068;8.658;2022-08-21T12:40:49;3.65;;;2.47;;
8636;SDS011;4356;49.068;8.658;2022-08-21T12:43:33;2.95;;;2.40;;
8636;SDS011;4356;49.068;8.658;2022-08-21T12:46:02;3.22;;;2.88;;
8636;SDS011;4356;49.068;8.658;2022-08-21T12:51:26;3.97;;;2.58;;
8636;SDS011;4356;49.068;8.658;2022-08-21T12:53:57;4.82;;;2.80;;
8636;SDS011;4356;49.068;8.658;2022-08-21T12:56:25;3.33;;;2.78;;
8636;SDS011;4356;49.068;8.658;2022-08-21T12:58:56;2.97;;;2.70;;
8636;SDS011;4356;49.068;8.658;2022-08-21T13:04:32;3.53;;;3.00;;
8636;SDS011;4356;49.068;8.658;2022-08-21T13:07:04;3.47;;;2.65;;
8636;SDS011;4356;49.068;8.658;2022-08-21T13:09:38;3.50;;;2.63;;
8636;SDS011;4356;49.068;8.658;2022-08-21T13:12:26;2.63;;;2.42;;
8636;SDS011;4356;49.068;8.658;2022-08-21T13:14:55;3.95;;;2.90;;
8636;SDS011;4356;49.068;8.658;2022-08-21T13:17:24;2.88;;;2.67;;
8636;SDS011;4356;49.068;8.658;2022-08-21T13:19:54;2.83;;;2.63;;
8636;SDS011;4356;49.068;8.658;2022-08-21T13:22:46;3.65;;;2.90;;
8636;SDS011;4356;49.068;8.658;2022-08-21T13:25:13;2.72;;;2.53;;
8636;SDS011;4356;49.068;8.658;2022-08-21T13:27:41;2.28;;;2.17;;
8636;SDS011;4356;49.068;8.658;2022-08-21T13:30:10;3.00;;;2.70;;
8636;SDS011;4356;49.068;8.658;2022-08-21T13:32:43;3.08;;;2.88;;
8636;SDS011;4356;49.068;8.658;2022-08-21T13:35:11;4.40;;;2.42;;
8636;SDS011;4356;49.068;8.658;2022-08-21T13:37:41;5.20;;;2.70;;
8636;SDS011;4356;49.068;8.658;2022-08-21T13:40:12;3.53;;;2.60;;
8636;SDS011;4356;49.068;8.658;2022-08-21T13:42:44;2.65;;;2.45;;
8636;SDS011;4356;49.068;8.658;2022-08-21T13:45:20;2.88;;;2.67;;
8636;SDS011;4356;49.068;8.658;2022-08-21T13:47:52;2.47;;;2.30;;
8636;SDS011;4356;49.068;8.658;2022-08-21T13:50:20;4.22;;;2.65;;
8636;SDS011;4356;49.068;8.658;2022-08-21T13:52:54;3.38;;;2.58;;
8636;SDS011;4356;49.068;8.658;2022-08-21T13:55:22;2.60;;;2.40;;
8636;SDS011;4356;49.068;8.658;2022-08-21T13:57:58;2.85;;;2.45;;
8636;SDS011;4356;49.068;8.658;2022-08-21T14:00:27;3.80;;;2.67;;
8636;SDS011;4356;49.068;8.658;2022-08-21T14:02:59;2.78;;;2.58;;
8636;SDS011;4356;49.068;8.658;2022-08-21T14:05:29;4.53;;;2.85;;
8636;SDS011;4356;49.068;8.658;2022-08-21T14:08:03;2.97;;;2.58;;
8636;SDS011;4356;49.068;8.658;2022-08-21T14:10:28;2.50;;;2.40;;
8636;SDS011;4356;49.068;8.658;2022-08-21T14:12:55;2.38;;;2.17;;
8636;SDS011;4356;49.068;8.658;2022-08-21T14:15:30;5.35;;;2.67;;
8636;SDS011;4356;49.068;8.658;2022-08-21T14:18:16;6.18;;;2.65;;
8636;SDS011;4356;49.068;8.658;2022-08-21T14:20:44;3.78;;;2.22;;
8636;SDS011;4356;49.068;8.658;2022-08-21T14:23:10;2.75;;;2.47;;
8636;SDS011;4356;49.068;8.658;2022-08-21T14:25:40;2.75;;;2.55;;
8636;SDS011;4356;49.068;8.658;2022-08-21T14:30:51;2.58;;;2.38;;
8636;SDS011;4356;49.068;8.658;2022-08-21T14:33:28;2.65;;;2.45;;
8636;SDS011;4356;49.068;8.658;2022-08-21T14:35:56;2.40;;;2.30;;
8636;SDS011;4356;49.068;8.658;2022-08-21T14:38:23;3.20;;;2.72;;
8636;SDS011;4356;49.068;8.658;2022-08-21T14:40:52;3.00;;;2.40;;
8636;SDS011;4356;49.068;8.658;2022-08-21T14:43:19;2.92;;;2.65;;
8636;SDS011;4356;49.068;8.658;2022-08-21T14:45:45;2.95;;;2.65;;
8636;SDS011;4356;49.068;8.658;2022-08-21T14:48:11;2.80;;;2.60;;
8636;SDS011;4356;49.068;8.658;2022-08-21T14:50:37;2.88;;;2.60;;
8636;SDS011;4356;49.068;8.658;2022-08-21T14:53:04;2.53;;;2.33;;
8636;SDS011;4356;49.068;8.658;2022-08-21T14:55:30;2.70;;;2.30;;
8636;SDS011;4356;49.068;8.658;2022-08-21T14:58:16;2.75;;;2.55;;
8636;SDS011;4356;49.068;8.658;2022-08-21T15:00:42;2.83;;;2.45;;
8636;SDS011;4356;49.068;8.658;2022-08-21T15:03:11;3.08;;;2.55;;
8636;SDS011;4356;49.068;8.658;2022-08-21T15:05:36;2.33;;;2.13;;
8636;SDS011;4356;49.068;8.658;2022-08-21T15:08:02;4.55;;;2.45;;
8636;SDS011;4356;49.068;8.658;2022-08-21T15:10:31;3.13;;;2.53;;
8636;SDS011;4356;49.068;8.658;2022-08-21T15:12:59;4.90;;;2.53;;
8636;SDS011;4356;49.068;8.658;2022-08-21T15:15:25;4.13;;;2.17;;
8636;SDS011;4356;49.068;8.658;2022-08-21T15:17:50;3.83;;;2.60;;
8636;SDS011;4356;49.068;8.658;2022-08-21T15:20:16;2.95;;;2.47;;
8636;SDS011;4356;49.068;8.658;2022-08-21T15:22:42;2.60;;;2.40;;
8636;SDS011;4356;49.068;8.658;2022-08-21T15:25:07;3.20;;;2.50;;
8636;SDS011;4356;49.068;8.658;2022-08-21T15:27:33;2.70;;;2.50;;
8636;SDS011;4356;49.068;8.658;2022-08-21T15:29:59;2.13;;;2.03;;
8636;SDS011;4356;49.068;8.658;2022-08-21T15:32:26;2.53;;;2.33;;
8636;SDS011;4356;49.068;8.658;2022-08-21T15:34:55;2.70;;;2.50;;
8636;SDS011;4356;49.068;8.658;2022-08-21T15:37:21;2.65;;;2.45;;
8636;SDS011;4356;49.068;8.658;2022-08-21T15:39:49;4.63;;;2.22;;
8636;SDS011;4356;49.068;8.658;2022-08-21T15:42:15;2.53;;;2.33;;
8636;SDS011;4356;49.068;8.658;2022-08-21T15:44:41;2.53;;;2.33;;
8636;SDS011;4356;49.068;8.658;2022-08-21T15:47:11;2.90;;;2.63;;
8636;SDS011;4356;49.068;8.658;2022-08-21T15:49:40;2.10;;;2.00;;
8636;SDS011;4356;49.068;8.658;2022-08-21T15:52:09;2.35;;;2.22;;
8636;SDS011;4356;49.068;8.658;2022-08-21T15:54:35;2.60;;;2.28;;
8636;SDS011;4356;49.068;8.658;2022-08-21T15:57:00;2.85;;;2.65;;
8636;SDS011;4356;49.068;8.658;2022-08-21T15:59:37;2.90;;;2.70;;
8636;SDS011;4356;49.068;8.658;2022-08-21T16:02:07;2.78;;;2.30;;
8636;SDS011;4356;49.068;8.658;2022-08-21T16:04:38;2.40;;;2.30;;
8636;SDS011;4356;49.068;8.658;2022-08-21T16:07:04;2.63;;;2.33;;
8636;SDS011;4356;49.068;8.658;2022-08-21T16:09:29;2.72;;;2.53;;
8636;SDS011;4356;49.068;8.658;2022-08-21T16:11:55;2.47;;;2.17;;
8636;SDS011;4356;49.068;8.658;2022-08-21T16:14:20;2.83;;;2.60;;
8636;SDS011;4356;49.068;8.658;2022-08-21T16:16:46;2.50;;;2.30;;
8636;SDS011;4356;49.068;8.658;2022-08-21T16:19:11;2.60;;;2.40;;
8636;SDS011;4356;49.068;8.658;2022-08-21T16:21:38;2.80;;;2.47;;
8636;SDS011;4356;49.068;8.658;2022-08-21T16:24:04;2.35;;;2.25;;
8636;SDS011;4356;49.068;8.658;2022-08-21T16:26:29;4.07;;;2.78;;
8636;SDS011;4356;49.068;8.658;2022-08-21T16:28:56;2.47;;;2.35;;
8636;SDS011;4356;49.068;8.658;2022-08-21T16:31:24;2.63;;;2.50;;
8636;SDS011;4356;49.068;8.658;2022-08-21T16:33:51;2.55;;;2.33;;
8636;SDS011;4356;49.068;8.658;2022-08-21T16:36:19;2.28;;;2.08;;
8636;SDS011;4356;49.068;8.658;2022-08-21T16:38:46;2.65;;;2.35;;
8636;SDS011;4356;49.068;8.658;2022-08-21T16:41:14;2.38;;;2.20;;
8636;SDS011;4356;49.068;8.658;2022-08-21T16:43:43;2.50;;;2.40;;
8636;SDS011;4356;49.068;8.658;2022-08-21T16:46:11;2.67;;;2.47;;
8636;SDS011;4356;49.068;8.658;2022-08-21T16:48:38;2.60;;;2.40;;
8636;SDS011;4356;49.068;8.658;2022-08-21T16:51:05;2.65;;;2.45;;
8636;SDS011;4356;49.068;8.658;2022-08-21T16:53:30;2.85;;;2.28;;
8636;SDS011;4356;49.068;8.658;2022-08-21T16:55:56;2.42;;;2.30;;
8636;SDS011;4356;49.068;8.658;2022-08-21T16:58:26;2.60;;;2.40;;
8636;SDS011;4356;49.068;8.658;2022-08-21T17:00:56;2.38;;;2.25;;
8636;SDS011;4356;49.068;8.658;2022-08-21T17:03:31;2.42;;;2.28;;
8636;SDS011;4356;49.068;8.658;2022-08-21T17:05:59;2.28;;;2.17;;
8636;SDS011;4356;49.068;8.658;2022-08-21T17:08:25;2.40;;;2.20;;
8636;SDS011;4356;49.068;8.658;2022-08-21T17:10:50;2.78;;;2.10;;
8636;SDS011;4356;49.068;8.658;2022-08-21T17:13:16;2.97;;;2.42;;
8636;SDS011;4356;49.068;8.658;2022-08-21T17:15:45;2.10;;;2.00;;